Time;durP1;ratioP1;P1;durP2;ratioP2;P2;SDS_P1;SDS_P2;PMS_P1;PMS_P2;Temp;Humidity;BMP_temperature;BMP_pressure;BME280_temperature;BME280_humidity;BME280_pressure;Samples;Min_cycle;Max_cycle;Signal;HPM_P1;HPM_P2
2023/07/02 00:01:58;;;;;;;5.80;2.97;;;;;;;;;;5082362;28;20487;-58
2023/07/02 00:04:24;;;;;;;7.53;3.15;;;;;;;;;;5080261;28;20099;-59
2023/07/02 00:06:51;;;;;;;5.90;2.50;;;;;;;;;;5081388;28;20364;-58
2023/07/02 00:09:17;;;;;;;5.55;3.03;;;;;;;;;;5082800;28;20579;-58
2023/07/02 00:11:45;;;;;;;5.32;2.60;;;;;;;;;;5084075;28;20062;-59
2023/07/02 00:14:13;;;;;;;6.55;3.17;;;;;;;;;;5085275;28;20087;-58
2023/07/02 00:16:42;;;;;;;7.18;2.95;;;;;;;;;;5084973;28;20076;-58
2023/07/02 00:19:09;;;;;;;8.20;2.67;;;;;;;;;;5085885;28;20063;-59
2023/07/02 00:21:37;;;;;;;7.28;2.95;;;;;;;;;;5085237;28;20510;-59
2023/07/02 00:24:04;;;;;;;7.55;3.08;;;;;;;;;;5084973;28;20148;-58
2023/07/02 00:26:30;;;;;;;5.20;2.90;;;;;;;;;;5082789;28;20052;-58
2023/07/02 00:28:57;;;;;;;6.80;3.13;;;;;;;;;;5086393;28;20546;-59
2023/07/02 00:31:24;;;;;;;15.18;3.25;;;;;;;;;;5085030;28;20153;-59
2023/07/02 00:33:50;;;;;;;9.38;3.55;;;;;;;;;;5086110;28;20634;-59
2023/07/02 00:36:17;;;;;;;11.65;3.45;;;;;;;;;;5079551;28;20481;-59
2023/07/02 00:38:44;;;;;;;17.45;3.88;;;;;;;;;;5085086;28;21112;-58
2023/07/02 00:41:11;;;;;;;7.97;3.35;;;;;;;;;;5083291;28;21305;-58
2023/07/02 00:43:43;;;;;;;4.53;3.22;;;;;;;;;;5077926;28;20395;-58
2023/07/02 00:46:24;;;;;;;4.35;2.85;;;;;;;;;;5083998;28;20576;-58
2023/07/02 00:48:51;;;;;;;7.15;3.67;;;;;;;;;;5086133;28;20474;-58
2023/07/02 00:51:19;;;;;;;5.13;3.40;;;;;;;;;;5083321;28;20052;-58
2023/07/02 00:53:47;;;;;;;11.40;3.78;;;;;;;;;;5072427;28;20564;-59
2023/07/02 00:56:13;;;;;;;8.68;4.07;;;;;;;;;;5079373;28;20049;-59
2023/07/02 00:58:41;;;;;;;10.20;4.03;;;;;;;;;;5085030;28;20115;-58
2023/07/02 01:01:09;;;;;;;7.25;4.28;;;;;;;;;;5084397;28;20052;-59
2023/07/02 01:03:37;;;;;;;13.85;4.03;;;;;;;;;;5083986;28;20049;-56
2023/07/02 01:06:03;;;;;;;8.65;3.42;;;;;;;;;;5083900;28;20053;-58
2023/07/02 01:08:30;;;;;;;12.10;4.40;;;;;;;;;;5084134;28;20472;-58
2023/07/02 01:10:57;;;;;;;8.50;4.18;;;;;;;;;;5081101;28;20107;-58
2023/07/02 01:13:24;;;;;;;11.40;4.20;;;;;;;;;;5085610;28;20460;-59
2023/07/02 01:15:50;;;;;;;13.15;4.28;;;;;;;;;;5083312;28;20122;-59
2023/07/02 01:18:17;;;;;;;7.03;4.20;;;;;;;;;;5068347;28;20052;-58
2023/07/02 01:20:44;;;;;;;13.88;5.15;;;;;;;;;;5084189;28;20148;-58
2023/07/02 01:23:10;;;;;;;10.63;4.25;;;;;;;;;;5084449;28;20048;-59
2023/07/02 01:25:37;;;;;;;11.90;4.80;;;;;;;;;;5083396;28;20052;-58
2023/07/02 01:28:03;;;;;;;22.38;5.50;;;;;;;;;;5083331;28;20057;-58
2023/07/02 01:30:30;;;;;;;12.98;4.72;;;;;;;;;;5084596;28;20052;-58
2023/07/02 01:32:56;;;;;;;34.55;6.45;;;;;;;;;;5083648;28;20137;-57
2023/07/02 01:35:23;;;;;;;16.05;5.70;;;;;;;;;;5085049;28;20056;-58
2023/07/02 01:37:49;;;;;;;14.25;5.45;;;;;;;;;;5084180;28;20150;-59
2023/07/02 01:40:16;;;;;;;9.57;4.93;;;;;;;;;;5063203;28;20155;-58
2023/07/02 01:42:42;;;;;;;10.10;4.18;;;;;;;;;;5068861;28;20053;-58
2023/07/02 01:45:09;;;;;;;11.38;4.53;;;;;;;;;;5080708;28;20058;-59
2023/07/02 01:47:35;;;;;;;11.38;4.70;;;;;;;;;;5083208;28;20139;-59
2023/07/02 01:50:03;;;;;;;11.02;4.47;;;;;;;;;;5084935;28;20063;-59
2023/07/02 01:52:32;;;;;;;14.45;5.30;;;;;;;;;;5083655;28;20146;-59
2023/07/02 01:55:00;;;;;;;26.13;5.45;;;;;;;;;;5082091;28;20520;-58
2023/07/02 01:57:27;;;;;;;10.20;5.15;;;;;;;;;;5078550;28;20509;-58
2023/07/02 01:59:54;;;;;;;9.23;4.35;;;;;;;;;;5084295;28;20083;-59
2023/07/02 02:02:20;;;;;;;12.95;5.38;;;;;;;;;;5075063;28;20789;-59
2023/07/02 02:04:47;;;;;;;16.90;5.05;;;;;;;;;;5074209;28;20145;-59
2023/07/02 02:07:13;;;;;;;17.40;5.65;;;;;;;;;;5082499;28;20534;-60
2023/07/02 02:09:40;;;;;;;15.23;5.68;;;;;;;;;;5082197;28;20106;-59
2023/07/02 02:12:06;;;;;;;8.82;4.80;;;;;;;;;;5083919;28;20139;-58
2023/07/02 02:14:33;;;;;;;14.48;5.60;;;;;;;;;;5081826;28;20056;-59
2023/07/02 02:16:59;;;;;;;14.68;6.13;;;;;;;;;;5083648;28;20167;-58
2023/07/02 02:19:26;;;;;;;15.30;6.20;;;;;;;;;;5084979;28;20052;-58
2023/07/02 02:21:52;;;;;;;14.65;5.80;;;;;;;;;;5082994;28;20110;-59
2023/07/02 02:24:19;;;;;;;16.17;6.18;;;;;;;;;;5083482;28;20060;-58
2023/07/02 02:26:46;;;;;;;17.52;6.45;;;;;;;;;;5083636;28;20126;-58
2023/07/02 02:29:12;;;;;;;15.05;7.50;;;;;;;;;;5082589;28;20048;-59
2023/07/02 02:31:38;;;;;;;18.42;6.20;;;;;;;;;;5082961;28;20052;-59
2023/07/02 02:34:05;;;;;;;14.73;6.03;;;;;;;;;;5076070;28;20161;-59
2023/07/02 02:36:32;;;;;;;12.05;6.10;;;;;;;;;;5082451;28;20681;-59
2023/07/02 02:38:58;;;;;;;15.32;5.45;;;;;;;;;;5084832;28;20096;-59
2023/07/02 02:41:25;;;;;;;12.52;5.22;;;;;;;;;;5082836;28;20049;-59
2023/07/02 02:43:51;;;;;;;12.82;5.90;;;;;;;;;;5083803;28;20526;-58
2023/07/02 02:46:21;;;;;;;19.45;7.10;;;;;;;;;;5082315;28;20060;-59
2023/07/02 02:48:48;;;;;;;11.95;5.30;;;;;;;;;;5082871;28;20143;-59
2023/07/02 02:51:15;;;;;;;13.18;5.50;;;;;;;;;;5082130;28;20056;-59
2023/07/02 02:53:41;;;;;;;15.30;5.38;;;;;;;;;;5083349;28;20059;-58
2023/07/02 02:56:08;;;;;;;19.40;6.20;;;;;;;;;;5063711;28;20084;-57
2023/07/02 02:58:34;;;;;;;15.45;6.78;;;;;;;;;;5081478;28;20079;-59
2023/07/02 03:01:01;;;;;;;15.02;5.22;;;;;;;;;;5082460;28;20583;-59
2023/07/02 03:03:27;;;;;;;19.80;6.38;;;;;;;;;;5080906;28;20062;-58
2023/07/02 03:05:54;;;;;;;12.95;5.85;;;;;;;;;;5082929;28;20143;-59
2023/07/02 03:08:20;;;;;;;13.52;5.35;;;;;;;;;;5082893;28;20049;-58
2023/07/02 03:10:47;;;;;;;11.77;5.68;;;;;;;;;;5082721;28;20571;-58
2023/07/02 03:13:14;;;;;;;15.38;5.68;;;;;;;;;;5081531;28;20527;-58
2023/07/02 03:15:40;;;;;;;15.38;5.18;;;;;;;;;;5082469;28;20521;-59
2023/07/02 03:18:07;;;;;;;17.30;6.25;;;;;;;;;;5082756;28;20076;-58
2023/07/02 03:20:33;;;;;;;15.68;5.82;;;;;;;;;;5081314;28;20414;-59
2023/07/02 03:22:59;;;;;;;14.52;6.10;;;;;;;;;;5081486;28;20462;-58
2023/07/02 03:25:26;;;;;;;9.60;5.20;;;;;;;;;;5082605;28;20057;-58
2023/07/02 03:27:52;;;;;;;14.80;6.15;;;;;;;;;;5081833;28;20583;-58
2023/07/02 03:30:19;;;;;;;13.65;6.20;;;;;;;;;;5081746;28;20056;-58
2023/07/02 03:32:46;;;;;;;19.83;6.13;;;;;;;;;;5081959;28;20101;-58
2023/07/02 03:35:12;;;;;;;13.98;5.60;;;;;;;;;;5081601;28;20052;-58
2023/07/02 03:37:41;;;;;;;11.18;5.05;;;;;;;;;;5081984;28;20052;-58
2023/07/02 03:40:08;;;;;;;15.82;5.43;;;;;;;;;;5083386;28;20135;-59
2023/07/02 03:42:34;;;;;;;15.55;5.72;;;;;;;;;;5080028;28;20049;-58
2023/07/02 03:45:01;;;;;;;15.57;5.88;;;;;;;;;;5082705;28;20110;-59
2023/07/02 03:47:27;;;;;;;15.23;5.53;;;;;;;;;;5079649;28;20083;-58
2023/07/02 03:49:54;;;;;;;12.80;5.72;;;;;;;;;;5082901;28;20596;-57
2023/07/02 03:52:20;;;;;;;18.25;6.22;;;;;;;;;;5081066;28;20079;-59
2023/07/02 03:54:47;;;;;;;12.43;5.72;;;;;;;;;;5083094;28;20056;-59
2023/07/02 03:57:13;;;;;;;13.57;6.00;;;;;;;;;;5081296;28;20052;-59
2023/07/02 03:59:39;;;;;;;14.10;5.20;;;;;;;;;;5081139;28;20056;-59
2023/07/02 04:02:06;;;;;;;13.00;5.82;;;;;;;;;;5082132;28;20486;-59
2023/07/02 04:04:32;;;;;;;17.73;6.05;;;;;;;;;;5081524;28;20064;-59
2023/07/02 04:06:59;;;;;;;12.80;6.18;;;;;;;;;;5083209;28;20698;-58
2023/07/02 04:09:25;;;;;;;15.00;5.70;;;;;;;;;;5081630;28;20130;-59
2023/07/02 04:11:52;;;;;;;14.07;5.68;;;;;;;;;;5081809;28;20059;-59
2023/07/02 04:14:18;;;;;;;20.20;7.22;;;;;;;;;;5081734;28;20144;-58
2023/07/02 04:16:45;;;;;;;14.43;6.00;;;;;;;;;;5081486;28;20048;-58
2023/07/02 04:19:11;;;;;;;10.70;5.38;;;;;;;;;;5081841;28;20055;-58
2023/07/02 04:21:38;;;;;;;18.25;5.90;;;;;;;;;;5080486;28;20055;-58
2023/07/02 04:24:05;;;;;;;18.23;6.15;;;;;;;;;;5081287;28;20056;-57
2023/07/02 04:26:32;;;;;;;14.48;6.65;;;;;;;;;;5081709;28;20060;-58
2023/07/02 04:29:18;;;;;;;16.40;6.50;;;;;;;;;;5074680;28;20067;-58
2023/07/02 04:31:45;;;;;;;12.35;5.82;;;;;;;;;;5082239;28;20080;-58
2023/07/02 04:34:11;;;;;;;17.35;6.13;;;;;;;;;;5082008;28;20045;-59
2023/07/02 04:36:37;;;;;;;18.08;6.57;;;;;;;;;;5082508;28;20165;-59
2023/07/02 04:39:04;;;;;;;13.55;5.25;;;;;;;;;;5081602;28;20099;-59
2023/07/02 04:41:32;;;;;;;17.65;6.90;;;;;;;;;;5081384;28;20056;-58
2023/07/02 04:43:58;;;;;;;21.88;5.75;;;;;;;;;;5078041;28;20063;-59
2023/07/02 04:46:25;;;;;;;22.38;6.05;;;;;;;;;;5075594;28;20147;-59
2023/07/02 04:48:51;;;;;;;17.13;6.22;;;;;;;;;;5073330;28;20528;-59
2023/07/02 04:51:20;;;;;;;16.17;5.97;;;;;;;;;;5061607;28;20060;-59
2023/07/02 04:53:46;;;;;;;19.75;5.82;;;;;;;;;;5080784;28;20477;-59
2023/07/02 04:56:12;;;;;;;17.30;5.95;;;;;;;;;;5082055;28;20080;-57
2023/07/02 04:58:39;;;;;;;16.67;5.68;;;;;;;;;;5086762;28;20060;-59
2023/07/02 05:01:06;;;;;;;20.60;6.07;;;;;;;;;;5084769;28;20045;-59
2023/07/02 05:03:32;;;;;;;20.63;6.47;;;;;;;;;;5083390;28;20045;-58
2023/07/02 05:05:59;;;;;;;13.35;6.05;;;;;;;;;;5085546;28;20080;-59
2023/07/02 05:08:25;;;;;;;18.17;7.25;;;;;;;;;;5083043;28;20055;-59
2023/07/02 05:10:51;;;;;;;13.48;5.15;;;;;;;;;;5092449;28;20129;-59
2023/07/02 05:13:18;;;;;;;18.75;6.72;;;;;;;;;;5083525;28;20053;-59
2023/07/02 05:15:44;;;;;;;19.65;7.65;;;;;;;;;;5084856;28;20494;-59
2023/07/02 05:18:11;;;;;;;12.32;5.53;;;;;;;;;;5084122;28;20052;-58
2023/07/02 05:20:37;;;;;;;13.27;5.93;;;;;;;;;;5088683;28;20060;-58
2023/07/02 05:23:04;;;;;;;17.00;5.75;;;;;;;;;;5075414;28;20060;-59
2023/07/02 05:25:32;;;;;;;20.00;5.47;;;;;;;;;;5084763;28;20056;-58
2023/07/02 05:27:58;;;;;;;15.48;6.15;;;;;;;;;;5080144;28;20063;-58
2023/07/02 05:30:25;;;;;;;13.00;6.03;;;;;;;;;;5079501;28;20143;-58
2023/07/02 05:32:51;;;;;;;16.02;5.68;;;;;;;;;;5077587;28;20151;-57
2023/07/02 05:35:18;;;;;;;12.27;5.70;;;;;;;;;;5083184;28;20099;-58
2023/07/02 05:37:45;;;;;;;16.80;5.95;;;;;;;;;;5083379;28;20786;-59
2023/07/02 05:40:11;;;;;;;14.85;5.68;;;;;;;;;;5081188;28;20080;-57
2023/07/02 05:42:42;;;;;;;12.43;5.30;;;;;;;;;;5075472;28;20131;-59
2023/07/02 05:45:09;;;;;;;16.75;5.65;;;;;;;;;;5075812;28;20106;-59
2023/07/02 05:47:35;;;;;;;15.07;5.72;;;;;;;;;;5083413;28;20060;-58
2023/07/02 05:50:02;;;;;;;15.63;5.88;;;;;;;;;;5075401;28;20057;-58
2023/07/02 05:52:28;;;;;;;13.35;5.43;;;;;;;;;;5084733;28;20146;-58
2023/07/02 05:54:55;;;;;;;19.65;5.55;;;;;;;;;;5082793;28;20045;-59
2023/07/02 05:57:21;;;;;;;17.23;6.43;;;;;;;;;;5084460;28;20079;-58
2023/07/02 05:59:47;;;;;;;14.73;5.25;;;;;;;;;;5083074;28;20045;-58
2023/07/02 06:02:14;;;;;;;14.43;4.43;;;;;;;;;;5081341;28;20053;-58
2023/07/02 06:04:40;;;;;;;18.23;5.88;;;;;;;;;;5081679;28;20056;-58
2023/07/02 06:07:07;;;;;;;10.18;5.00;;;;;;;;;;5083087;28;20053;-57
2023/07/02 06:09:33;;;;;;;13.90;4.90;;;;;;;;;;5083043;28;20715;-58
2023/07/02 06:12:00;;;;;;;11.43;5.20;;;;;;;;;;5081147;28;20060;-60
2023/07/02 06:14:26;;;;;;;16.92;5.45;;;;;;;;;;5082265;28;20084;-58
2023/07/02 06:16:56;;;;;;;14.77;4.70;;;;;;;;;;5082357;28;20060;-58
2023/07/02 06:19:23;;;;;;;15.40;5.60;;;;;;;;;;5084488;28;20106;-58
2023/07/02 06:21:49;;;;;;;13.55;4.90;;;;;;;;;;5083306;28;20473;-58
2023/07/02 06:24:16;;;;;;;16.63;5.85;;;;;;;;;;5082499;28;20052;-58
2023/07/02 06:26:42;;;;;;;8.43;4.40;;;;;;;;;;5080906;28;20048;-58
2023/07/02 06:29:08;;;;;;;15.23;5.20;;;;;;;;;;5081655;28;20056;-59
2023/07/02 06:31:35;;;;;;;12.82;4.07;;;;;;;;;;5079669;28;20505;-58
2023/07/02 06:34:02;;;;;;;12.73;3.67;;;;;;;;;;5063929;28;20526;-58
2023/07/02 06:36:28;;;;;;;15.57;5.13;;;;;;;;;;5077822;28;20466;-58
2023/07/02 06:38:55;;;;;;;15.60;5.18;;;;;;;;;;5083413;28;20526;-59
2023/07/02 06:41:21;;;;;;;16.98;4.97;;;;;;;;;;5080930;28;20526;-58
2023/07/02 06:43:47;;;;;;;11.32;4.20;;;;;;;;;;5083738;28;20068;-58
2023/07/02 06:46:14;;;;;;;11.98;4.78;;;;;;;;;;5083806;28;20087;-59
2023/07/02 06:48:41;;;;;;;11.38;4.10;;;;;;;;;;5082344;28;20095;-58
2023/07/02 06:51:08;;;;;;;9.15;4.43;;;;;;;;;;5082633;28;20629;-58
2023/07/02 06:53:35;;;;;;;9.75;4.60;;;;;;;;;;5067515;28;20601;-58
2023/07/02 06:56:02;;;;;;;11.07;4.20;;;;;;;;;;5085306;28;20505;-58
2023/07/02 06:58:28;;;;;;;9.88;4.38;;;;;;;;;;5081658;28;20507;-59
2023/07/02 07:00:55;;;;;;;11.43;4.70;;;;;;;;;;5082554;28;20063;-57
2023/07/02 07:03:21;;;;;;;11.60;3.95;;;;;;;;;;5073686;28;20521;-58
2023/07/02 07:05:48;;;;;;;13.68;4.78;;;;;;;;;;5068766;28;20061;-58
2023/07/02 07:08:14;;;;;;;11.85;3.90;;;;;;;;;;5083328;28;20419;-59
2023/07/02 07:10:41;;;;;;;11.10;4.45;;;;;;;;;;5083116;28;20147;-59
2023/07/02 07:13:07;;;;;;;14.18;4.07;;;;;;;;;;5077332;28;20147;-59
2023/07/02 07:15:37;;;;;;;12.38;4.03;;;;;;;;;;5080882;28;20603;-59
2023/07/02 07:18:03;;;;;;;12.68;4.18;;;;;;;;;;5081966;28;20048;-60
2023/07/02 07:20:30;;;;;;;8.93;4.38;;;;;;;;;;5083897;28;20044;-58
2023/07/02 07:22:57;;;;;;;10.88;4.00;;;;;;;;;;5083751;28;20084;-59
2023/07/02 07:25:24;;;;;;;8.82;3.10;;;;;;;;;;5082384;28;20571;-59
2023/07/02 07:27:51;;;;;;;12.23;4.13;;;;;;;;;;5082521;28;20057;-58
2023/07/02 07:30:22;;;;;;;7.85;3.03;;;;;;;;;;5082907;28;20526;-59
2023/07/02 07:32:50;;;;;;;9.63;3.78;;;;;;;;;;5071499;28;20064;-58
2023/07/02 07:35:20;;;;;;;9.18;4.72;;;;;;;;;;5082811;28;20055;-59
2023/07/02 07:37:46;;;;;;;10.23;4.07;;;;;;;;;;5081853;28;20060;-58
2023/07/02 07:40:13;;;;;;;14.50;3.78;;;;;;;;;;5082535;28;20098;-58
2023/07/02 07:42:40;;;;;;;12.50;4.53;;;;;;;;;;5083111;28;20088;-58
2023/07/02 07:45:07;;;;;;;8.73;3.78;;;;;;;;;;5081847;28;20056;-57
2023/07/02 07:47:33;;;;;;;11.73;3.47;;;;;;;;;;5081875;28;20056;-59
2023/07/02 07:50:00;;;;;;;15.57;4.20;;;;;;;;;;5080909;28;20052;-58
2023/07/02 07:52:27;;;;;;;8.88;3.72;;;;;;;;;;5074358;28;20056;-58
2023/07/02 07:54:53;;;;;;;8.77;3.60;;;;;;;;;;5079357;28;20461;-59
2023/07/02 07:57:20;;;;;;;10.30;3.65;;;;;;;;;;5079535;28;20103;-59
2023/07/02 07:59:46;;;;;;;8.98;3.90;;;;;;;;;;5081452;28;20116;-58
2023/07/02 08:02:13;;;;;;;10.30;4.40;;;;;;;;;;5080919;28;20135;-60
2023/07/02 08:04:39;;;;;;;12.88;3.97;;;;;;;;;;5081610;28;20067;-59
2023/07/02 08:07:08;;;;;;;9.40;3.55;;;;;;;;;;5080605;28;20151;-59
2023/07/02 08:09:35;;;;;;;10.77;3.95;;;;;;;;;;5080113;28;20059;-59
2023/07/02 08:12:02;;;;;;;10.85;3.90;;;;;;;;;;5081437;28;20045;-59
2023/07/02 08:14:29;;;;;;;11.05;3.80;;;;;;;;;;5081916;28;20572;-59
2023/07/02 08:16:55;;;;;;;10.48;3.83;;;;;;;;;;5082549;28;20121;-59
2023/07/02 08:19:22;;;;;;;10.30;4.25;;;;;;;;;;5081834;28;20052;-58
2023/07/02 08:21:50;;;;;;;10.57;3.80;;;;;;;;;;5082607;28;20052;-59
2023/07/02 08:24:16;;;;;;;7.93;4.10;;;;;;;;;;5081586;28;20426;-58
2023/07/02 08:26:44;;;;;;;12.07;4.10;;;;;;;;;;5081079;28;20049;-58
2023/07/02 08:29:11;;;;;;;10.85;4.20;;;;;;;;;;5082400;28;20110;-59
2023/07/02 08:31:38;;;;;;;11.75;4.10;;;;;;;;;;5084231;28;20056;-58
2023/07/02 08:34:05;;;;;;;10.88;3.63;;;;;;;;;;5086025;28;20088;-59
2023/07/02 08:36:31;;;;;;;10.90;4.07;;;;;;;;;;5085670;28;20106;-60
2023/07/02 08:38:57;;;;;;;8.05;3.80;;;;;;;;;;5085383;28;20516;-58
2023/07/02 08:41:24;;;;;;;11.30;3.70;;;;;;;;;;5085760;28;20132;-59
2023/07/02 08:43:54;;;;;;;12.07;3.78;;;;;;;;;;5086367;28;20070;-59
2023/07/02 08:46:21;;;;;;;8.23;3.47;;;;;;;;;;5086402;28;20401;-59
2023/07/02 08:48:47;;;;;;;8.48;3.88;;;;;;;;;;5085622;28;20556;-58
2023/07/02 08:51:14;;;;;;;7.10;3.15;;;;;;;;;;5085522;28;20056;-59
2023/07/02 08:53:40;;;;;;;12.10;3.30;;;;;;;;;;5068451;28;20059;-59
2023/07/02 08:56:07;;;;;;;10.95;4.03;;;;;;;;;;5085620;28;20664;-58
2023/07/02 08:58:33;;;;;;;6.43;3.42;;;;;;;;;;5084664;28;20106;-58
2023/07/02 09:01:09;;;;;;;11.60;4.32;;;;;;;;;;5084679;28;20838;-59
2023/07/02 09:03:39;;;;;;;16.52;4.82;;;;;;;;;;5085690;28;20134;-58
2023/07/02 09:06:07;;;;;;;11.85;3.95;;;;;;;;;;5085049;28;21731;-58
2023/07/02 09:08:33;;;;;;;15.65;4.68;;;;;;;;;;5084940;28;20059;-59
2023/07/02 09:11:07;;;;;;;8.75;3.10;;;;;;;;;;5083658;28;20048;-59
2023/07/02 09:13:43;;;;;;;8.15;3.33;;;;;;;;;;5064824;28;20528;-58
2023/07/02 09:16:28;;;;;;;8.07;3.42;;;;;;;;;;5071912;28;20056;-58
2023/07/02 09:18:55;;;;;;;7.78;3.10;;;;;;;;;;5085501;28;20514;-59
2023/07/02 09:21:22;;;;;;;7.00;3.13;;;;;;;;;;5085094;28;20486;-59
2023/07/02 09:23:49;;;;;;;8.77;3.08;;;;;;;;;;5084848;28;20052;-58
2023/07/02 09:26:19;;;;;;;12.07;2.97;;;;;;;;;;5075288;28;20103;-60
2023/07/02 09:28:45;;;;;;;8.30;3.05;;;;;;;;;;5065098;28;20539;-58
2023/07/02 09:31:14;;;;;;;10.15;2.97;;;;;;;;;;5082652;28;20554;-59
2023/07/02 09:33:41;;;;;;;8.80;2.80;;;;;;;;;;5084873;28;20072;-59
2023/07/02 09:36:07;;;;;;;5.80;2.42;;;;;;;;;;5082381;28;20052;-59
2023/07/02 09:38:34;;;;;;;13.85;2.63;;;;;;;;;;5084190;28;20565;-58
2023/07/02 09:41:00;;;;;;;4.50;2.22;;;;;;;;;;5084458;28;20507;-59
2023/07/02 09:43:27;;;;;;;6.97;2.40;;;;;;;;;;5084416;28;20057;-59
2023/07/02 09:45:56;;;;;;;7.40;3.22;;;;;;;;;;5084763;28;20072;-60
2023/07/02 09:48:24;;;;;;;5.05;2.40;;;;;;;;;;5084563;28;20883;-59
2023/07/02 09:50:52;;;;;;;4.60;2.20;;;;;;;;;;5081425;28;20048;-61
2023/07/02 09:53:18;;;;;;;6.47;2.40;;;;;;;;;;5082556;28;20578;-59
2023/07/02 09:55:45;;;;;;;5.65;2.58;;;;;;;;;;5084383;28;20057;-59
2023/07/02 09:58:14;;;;;;;4.75;2.70;;;;;;;;;;5085028;28;20618;-59
2023/07/02 10:00:41;;;;;;;7.45;2.05;;;;;;;;;;5084427;28;20554;-59
2023/07/02 10:03:08;;;;;;;5.85;2.50;;;;;;;;;;5084981;28;20076;-59
2023/07/02 10:05:34;;;;;;;5.32;2.17;;;;;;;;;;5083464;28;20063;-60
2023/07/02 10:08:14;;;;;;;7.80;3.00;;;;;;;;;;5083763;28;20051;-60
2023/07/02 10:10:40;;;;;;;4.68;2.00;;;;;;;;;;5084204;28;20053;-59
2023/07/02 10:13:07;;;;;;;6.47;1.95;;;;;;;;;;5083628;28;20469;-60
2023/07/02 10:15:37;;;;;;;3.72;1.88;;;;;;;;;;5084475;28;20057;-60
2023/07/02 10:18:04;;;;;;;6.22;2.20;;;;;;;;;;5084300;28;20543;-59
2023/07/02 10:20:34;;;;;;;4.55;2.20;;;;;;;;;;5083984;28;20060;-59
2023/07/02 10:23:01;;;;;;;5.13;2.05;;;;;;;;;;5082241;28;20521;-60
2023/07/02 10:25:29;;;;;;;4.72;2.10;;;;;;;;;;5083730;28;20059;-60
2023/07/02 10:27:56;;;;;;;6.70;2.30;;;;;;;;;;5083445;28;20056;-59
2023/07/02 10:30:32;;;;;;;4.55;2.00;;;;;;;;;;5084255;28;20052;-59
2023/07/02 10:33:15;;;;;;;3.00;2.03;;;;;;;;;;5083685;28;20138;-60
2023/07/02 10:35:44;;;;;;;4.78;2.25;;;;;;;;;;5083493;28;20512;-57
2023/07/02 10:38:21;;;;;;;3.65;1.98;;;;;;;;;;5084052;28;20056;-59
2023/07/02 10:40:54;;;;;;;8.32;2.15;;;;;;;;;;5084059;28;20117;-59
2023/07/02 10:43:28;;;;;;;4.57;2.10;;;;;;;;;;5082147;28;20332;-57
2023/07/02 10:45:56;;;;;;;6.90;2.40;;;;;;;;;;5084545;28;20492;-59
2023/07/02 10:48:23;;;;;;;5.38;2.30;;;;;;;;;;5083094;28;20056;-59
2023/07/02 10:50:50;;;;;;;5.45;2.30;;;;;;;;;;5083530;28;20060;-59
2023/07/02 10:53:17;;;;;;;5.40;2.60;;;;;;;;;;5081336;28;20560;-60
2023/07/02 10:55:44;;;;;;;6.72;2.58;;;;;;;;;;5083248;28;20064;-59
2023/07/02 10:58:11;;;;;;;4.95;2.70;;;;;;;;;;5084110;28;20063;-59
2023/07/02 11:00:46;;;;;;;4.93;2.40;;;;;;;;;;5083764;28;20127;-59
2023/07/02 11:03:12;;;;;;;;;;;;;;;;;;5085893;28;20088;-60
2023/07/02 11:05:39;;;;;;;5.57;2.38;;;;;;;;;;5077471;28;47139;-58
2023/07/02 11:08:08;;;;;;;5.88;2.92;;;;;;;;;;5083672;28;20135;-59
2023/07/02 11:10:35;;;;;;;3.42;2.10;;;;;;;;;;5082148;28;20052;-59
2023/07/02 11:13:14;;;;;;;4.50;1.90;;;;;;;;;;5081357;28;20529;-59
2023/07/02 11:15:41;;;;;;;4.93;2.40;;;;;;;;;;5082883;28;20122;-58
2023/07/02 11:18:09;;;;;;;5.25;2.08;;;;;;;;;;5071208;28;20053;-59
2023/07/02 11:20:36;;;;;;;7.78;3.28;;;;;;;;;;5063317;28;20596;-58
2023/07/02 11:23:02;;;;;;;4.18;2.42;;;;;;;;;;5063161;28;20052;-58
2023/07/02 11:25:29;;;;;;;3.67;2.13;;;;;;;;;;5082562;28;20053;-59
2023/07/02 11:28:04;;;;;;;7.28;3.42;;;;;;;;;;5082503;28;20110;-59
2023/07/02 11:30:31;;;;;;;6.82;2.30;;;;;;;;;;5083471;28;20054;-60
2023/07/02 11:32:57;;;;;;;6.25;2.50;;;;;;;;;;5081460;28;20529;-59
2023/07/02 11:35:34;;;;;;;6.07;2.90;;;;;;;;;;5083193;28;20048;-60
2023/07/02 11:38:00;;;;;;;10.55;3.58;;;;;;;;;;5082757;28;20064;-60
2023/07/02 11:40:27;;;;;;;8.50;2.60;;;;;;;;;;5082631;28;20106;-59
2023/07/02 11:42:53;;;;;;;6.65;2.47;;;;;;;;;;5083199;28;20575;-59
2023/07/02 11:45:20;;;;;;;4.50;2.67;;;;;;;;;;5082875;28;20045;-59
2023/07/02 11:47:46;;;;;;;7.03;3.17;;;;;;;;;;5082843;28;20068;-59
2023/07/02 11:50:13;;;;;;;8.38;2.85;;;;;;;;;;5083198;28;20241;-59
2023/07/02 11:52:51;;;;;;;6.75;2.88;;;;;;;;;;5082184;28;20173;-59
2023/07/02 11:55:18;;;;;;;6.57;3.10;;;;;;;;;;5082271;28;20106;-59
2023/07/02 11:57:46;;;;;;;7.82;3.08;;;;;;;;;;5083382;28;20151;-60
2023/07/02 12:00:13;;;;;;;7.80;2.70;;;;;;;;;;5082277;28;20055;-59
2023/07/02 12:02:40;;;;;;;7.28;2.80;;;;;;;;;;5082012;28;20060;-59
2023/07/02 12:05:07;;;;;;;5.63;2.05;;;;;;;;;;5084962;28;20060;-59
2023/07/02 12:07:37;;;;;;;4.32;2.20;;;;;;;;;;5086601;28;20114;-59
2023/07/02 12:10:04;;;;;;;6.28;3.00;;;;;;;;;;5086531;28;20214;-59
2023/07/02 12:12:30;;;;;;;4.35;2.20;;;;;;;;;;5085220;28;20446;-59
2023/07/02 12:14:56;;;;;;;3.88;2.15;;;;;;;;;;5086779;28;20052;-58
2023/07/02 12:17:23;;;;;;;7.18;2.78;;;;;;;;;;5085843;28;20559;-59
2023/07/02 12:19:50;;;;;;;6.03;2.67;;;;;;;;;;5085656;28;20566;-59
2023/07/02 12:22:17;;;;;;;5.93;2.95;;;;;;;;;;5084288;28;20056;-59
2023/07/02 12:24:44;;;;;;;6.85;2.90;;;;;;;;;;5079311;28;20469;-59
2023/07/02 12:27:10;;;;;;;5.45;2.22;;;;;;;;;;5066630;28;20041;-59
2023/07/02 12:29:37;;;;;;;4.85;2.53;;;;;;;;;;5065822;28;20147;-58
2023/07/02 12:32:04;;;;;;;5.97;2.63;;;;;;;;;;5069725;28;20053;-59
2023/07/02 12:34:31;;;;;;;5.82;2.60;;;;;;;;;;5086221;28;20139;-60
2023/07/02 12:36:57;;;;;;;7.38;2.97;;;;;;;;;;5086219;28;20063;-59
2023/07/02 12:39:24;;;;;;;5.10;2.47;;;;;;;;;;5086183;28;20076;-59
2023/07/02 12:41:51;;;;;;;8.50;2.90;;;;;;;;;;5086314;28;20529;-58
2023/07/02 12:44:17;;;;;;;5.70;2.83;;;;;;;;;;5085860;28;20540;-58
2023/07/02 12:46:43;;;;;;;6.95;3.10;;;;;;;;;;5085395;28;20083;-59
2023/07/02 12:49:10;;;;;;;5.22;2.97;;;;;;;;;;5085262;28;20080;-59
2023/07/02 12:51:36;;;;;;;8.82;3.25;;;;;;;;;;5085539;28;20615;-58
2023/07/02 12:54:03;;;;;;;5.70;2.72;;;;;;;;;;5084506;28;20067;-58
2023/07/02 12:56:29;;;;;;;5.18;2.67;;;;;;;;;;5084704;28;20053;-58
2023/07/02 12:58:55;;;;;;;6.97;2.88;;;;;;;;;;5085703;28;20106;-59
2023/07/02 13:01:23;;;;;;;4.50;2.50;;;;;;;;;;5085233;28;20506;-59
2023/07/02 13:03:50;;;;;;;6.80;3.00;;;;;;;;;;5085270;28;20627;-59
2023/07/02 13:06:16;;;;;;;7.80;3.33;;;;;;;;;;5083923;28;20518;-59
2023/07/02 13:08:43;;;;;;;5.85;3.15;;;;;;;;;;5081973;28;20052;-59
2023/07/02 13:11:09;;;;;;;7.68;3.08;;;;;;;;;;5085072;28;20106;-60
2023/07/02 13:13:36;;;;;;;7.30;3.10;;;;;;;;;;5089537;28;20083;-58
2023/07/02 13:16:02;;;;;;;8.73;3.10;;;;;;;;;;5085046;28;20142;-59
2023/07/02 13:18:29;;;;;;;7.53;2.72;;;;;;;;;;5077829;28;20049;-58
2023/07/02 13:20:55;;;;;;;4.50;3.03;;;;;;;;;;5074946;28;20183;-58
2023/07/02 13:23:22;;;;;;;8.10;3.15;;;;;;;;;;5075606;28;20099;-59
2023/07/02 13:25:48;;;;;;;5.72;3.05;;;;;;;;;;5065337;28;20049;-59
2023/07/02 13:28:16;;;;;;;7.70;2.30;;;;;;;;;;5081837;28;20086;-60
2023/07/02 13:30:42;;;;;;;5.88;2.85;;;;;;;;;;5083690;28;20061;-59
2023/07/02 13:33:09;;;;;;;7.25;3.15;;;;;;;;;;5084132;28;20056;-60
2023/07/02 13:35:37;;;;;;;5.53;3.25;;;;;;;;;;5084800;28;20059;-60
2023/07/02 13:38:04;;;;;;;6.35;2.90;;;;;;;;;;5083440;28;20073;-60
2023/07/02 13:40:31;;;;;;;7.53;3.33;;;;;;;;;;5084724;28;20248;-60
2023/07/02 13:42:57;;;;;;;5.75;3.20;;;;;;;;;;5084817;28;20060;-59
2023/07/02 13:45:24;;;;;;;5.55;3.22;;;;;;;;;;5084242;28;20052;-60
2023/07/02 13:47:50;;;;;;;7.65;3.95;;;;;;;;;;5085029;28;20552;-59
2023/07/02 13:50:17;;;;;;;5.90;2.78;;;;;;;;;;5084072;28;20150;-61
2023/07/02 13:52:44;;;;;;;10.43;3.38;;;;;;;;;;5084597;28;20118;-59
2023/07/02 13:55:10;;;;;;;9.45;3.33;;;;;;;;;;5078208;28;20052;-60
2023/07/02 13:57:37;;;;;;;6.57;2.58;;;;;;;;;;5084132;28;20056;-60
2023/07/02 14:00:04;;;;;;;7.60;3.03;;;;;;;;;;5076946;28;20509;-59
2023/07/02 14:02:31;;;;;;;6.30;3.30;;;;;;;;;;5082239;28;20056;-60
2023/07/02 14:04:58;;;;;;;13.15;3.83;;;;;;;;;;5075546;28;20143;-60
2023/07/02 14:07:26;;;;;;;7.65;3.10;;;;;;;;;;5084361;28;20055;-59
2023/07/02 14:09:52;;;;;;;8.27;3.53;;;;;;;;;;5084823;28;20053;-60
2023/07/02 14:12:19;;;;;;;5.72;3.30;;;;;;;;;;5098083;28;20083;-61
2023/07/02 14:14:46;;;;;;;9.30;3.08;;;;;;;;;;5091673;27;20052;-60
2023/07/02 14:17:13;;;;;;;6.72;3.08;;;;;;;;;;5078075;28;20048;-59
2023/07/02 14:19:39;;;;;;;5.90;3.47;;;;;;;;;;5081536;28;20480;-59
2023/07/02 14:22:06;;;;;;;7.47;3.17;;;;;;;;;;5083827;28;20582;-59
2023/07/02 14:24:33;;;;;;;10.70;4.63;;;;;;;;;;5084424;28;20072;-59
2023/07/02 14:27:00;;;;;;;6.45;3.13;;;;;;;;;;5083453;28;20132;-60
2023/07/02 14:29:27;;;;;;;7.53;3.45;;;;;;;;;;5080565;28;20064;-59
2023/07/02 14:31:53;;;;;;;7.85;2.90;;;;;;;;;;5084386;28;20400;-60
2023/07/02 14:34:20;;;;;;;9.55;3.45;;;;;;;;;;5084512;28;20058;-59
2023/07/02 14:36:47;;;;;;;4.25;3.08;;;;;;;;;;5084678;28;20061;-60